createdAt,value
2019-02-14T00:00:17.392Z,29.10
2019-02-14T00:02:10.986Z,29.30
2019-02-14T00:03:10.964Z,29.50
2019-02-14T00:05:04.299Z,28.50
2019-02-14T00:06:04.099Z,28.40
2019-02-14T00:07:57.693Z,27.60
2019-02-14T00:08:57.686Z,27.50
2019-02-14T00:10:50.989Z,28.00
2019-02-14T00:11:50.780Z,28.60
2019-02-14T00:13:44.358Z,27.10
2019-02-14T00:14:44.341Z,28.50
2019-02-14T00:16:37.675Z,28.80
2019-02-14T00:17:37.491Z,27.80
2019-02-14T00:19:30.849Z,28.20
2019-02-14T00:20:31.090Z,27.70
2019-02-14T00:22:24.411Z,27.50
2019-02-14T00:23:24.181Z,27.40
2019-02-14T00:25:17.806Z,26.30
2019-02-14T00:26:17.525Z,25.50
2019-02-14T00:28:11.216Z,26.80
2019-02-14T00:29:10.890Z,26.50
2019-02-14T00:31:04.244Z,26.00
2019-02-14T00:32:04.479Z,27.00
2019-02-14T00:33:57.926Z,27.40
2019-02-14T00:34:57.665Z,26.60
2019-02-14T00:36:52.131Z,28.80
2019-02-14T00:37:52.145Z,27.40
2019-02-14T00:39:45.736Z,27.20
2019-02-14T00:40:45.470Z,26.60
2019-02-14T00:42:38.585Z,24.30
2019-02-14T00:43:38.807Z,26.60
2019-02-14T00:45:32.328Z,26.60
2019-02-14T00:46:32.167Z,27.80
2019-02-14T00:48:25.280Z,25.50
2019-02-14T00:49:25.524Z,26.30
2019-02-14T00:51:18.955Z,25.90
2019-02-14T00:52:18.650Z,24.70
2019-02-14T00:54:11.992Z,27.60
2019-02-14T00:55:12.172Z,25.50
2019-02-14T00:57:05.792Z,25.60
2019-02-14T00:59:58.738Z,25.90
2019-02-14T01:00:58.686Z,24.50
2019-02-14T01:02:52.602Z,24.80
2019-02-14T01:03:52.257Z,26.30
2019-02-14T01:05:45.710Z,25.50
2019-02-14T01:06:45.412Z,25.20
2019-02-14T01:08:39.245Z,24.50
2019-02-14T01:09:39.073Z,25.90
2019-02-14T01:11:32.163Z,25.40
2019-02-14T01:12:32.338Z,23.80
2019-02-14T01:14:25.677Z,23.60
2019-02-14T01:15:25.721Z,24.70
2019-02-14T01:17:19.083Z,26.30
2019-02-14T01:18:18.826Z,26.90
2019-02-14T01:20:12.484Z,24.80
2019-02-14T01:21:12.431Z,25.90
2019-02-14T01:23:05.766Z,25.50
2019-02-14T01:24:05.542Z,24.10
2019-02-14T01:25:59.400Z,25.30
2019-02-14T01:26:58.851Z,25.70
2019-02-14T01:28:52.497Z,24.90
2019-02-14T01:29:52.199Z,25.00
2019-02-14T01:31:46.007Z,26.80
2019-02-14T01:32:45.541Z,25.40
2019-02-14T01:34:38.934Z,27.10
2019-02-14T01:35:41.995Z,25.60
2019-02-14T01:37:32.507Z,23.10
2019-02-14T01:38:32.265Z,24.70
2019-02-14T01:40:25.969Z,24.00
2019-02-14T01:41:25.811Z,24.60
2019-02-14T01:43:19.165Z,24.90
2019-02-14T01:44:19.215Z,25.40
2019-02-14T01:46:12.552Z,24.30
2019-02-14T01:47:12.529Z,24.40
2019-02-14T01:49:06.196Z,25.60
2019-02-14T01:50:05.851Z,24.30
2019-02-14T01:51:58.984Z,26.80
2019-02-14T01:52:58.973Z,27.90
2019-02-14T01:54:52.800Z,25.00
2019-02-14T01:55:52.566Z,26.00
2019-02-14T01:57:45.701Z,23.80
2019-02-14T01:58:45.961Z,24.80
2019-02-14T02:00:39.231Z,26.70
2019-02-14T02:01:39.007Z,27.20
2019-02-14T02:03:32.652Z,26.00
2019-02-14T02:04:32.631Z,27.70
2019-02-14T02:06:26.068Z,25.30
2019-02-14T02:07:27.314Z,25.70
2019-02-14T02:09:19.419Z,27.20
2019-02-14T02:10:19.106Z,26.70
2019-02-14T02:12:12.893Z,26.70
2019-02-14T02:13:12.695Z,26.30
2019-02-14T02:15:06.021Z,24.90
2019-02-14T02:16:05.993Z,25.70
2019-02-14T02:17:59.671Z,23.90
2019-02-14T02:18:59.351Z,26.00
2019-02-14T02:20:52.533Z,26.90
2019-02-14T02:21:52.533Z,25.30
2019-02-14T02:25:18.115Z,24.70
2019-02-14T02:26:18.132Z,24.70
2019-02-14T02:28:11.270Z,26.30
2019-02-14T02:29:11.259Z,27.60
2019-02-14T02:31:04.919Z,24.00
2019-02-14T02:32:04.870Z,25.90
2019-02-14T02:33:58.205Z,26.20
2019-02-14T02:34:58.256Z,25.00
2019-02-14T02:36:51.526Z,26.20
2019-02-14T02:37:51.557Z,23.80
2019-02-14T02:39:45.425Z,24.00
2019-02-14T02:40:45.672Z,23.50
2019-02-14T02:42:39.263Z,25.20
2019-02-14T02:43:38.989Z,26.80
2019-02-14T02:45:32.335Z,26.10
2019-02-14T02:46:32.345Z,27.40
2019-02-14T02:48:25.974Z,25.60
2019-02-14T02:49:25.485Z,26.90
2019-02-14T02:51:18.881Z,26.00
2019-02-14T02:52:19.099Z,27.40
2019-02-14T02:54:12.493Z,25.40
2019-02-14T02:55:12.464Z,25.10
2019-02-14T02:57:05.834Z,26.60
2019-02-14T02:58:05.530Z,26.00
2019-02-14T02:59:58.698Z,27.30
2019-02-14T03:00:58.407Z,27.50
2019-02-14T03:02:51.779Z,28.10
2019-02-14T03:03:51.777Z,27.90
2019-02-14T03:05:45.951Z,26.70
2019-02-14T03:06:45.321Z,27.40
2019-02-14T03:08:38.666Z,28.30
2019-02-14T03:09:38.424Z,28.90
2019-02-14T03:11:53.188Z,27.30
2019-02-14T03:12:31.772Z,27.40
2019-02-14T03:14:25.147Z,27.50
2019-02-14T03:15:25.378Z,27.80
2019-02-14T03:17:18.907Z,25.60
2019-02-14T03:18:18.510Z,27.10
2019-02-14T03:20:12.708Z,26.20
2019-02-14T03:21:12.133Z,27.90
2019-02-14T03:23:05.829Z,28.50
2019-02-14T03:25:58.831Z,30.00
2019-02-14T03:26:58.626Z,29.60
2019-02-14T03:28:51.222Z,28.40
2019-02-14T03:29:50.952Z,28.20
2019-02-14T03:33:15.675Z,27.90
2019-02-14T03:34:15.449Z,28.10
2019-02-14T03:36:08.975Z,29.80
2019-02-14T03:37:08.963Z,28.70
2019-02-14T03:39:02.162Z,29.40
2019-02-14T03:40:02.344Z,29.60
2019-02-14T03:41:55.921Z,28.30
2019-02-14T03:42:55.504Z,30.60
2019-02-14T03:44:49.241Z,29.50
2019-02-14T03:45:48.899Z,29.40
2019-02-14T03:47:42.698Z,30.90
2019-02-14T03:48:42.218Z,29.40
2019-02-14T03:50:35.709Z,27.40
2019-02-14T03:53:29.442Z,28.50
2019-02-14T03:54:28.924Z,31.20
2019-02-14T03:56:43.287Z,28.20
2019-02-14T03:57:22.561Z,28.90
2019-02-14T03:59:15.949Z,27.70
2019-02-14T04:00:15.636Z,25.90
2019-02-14T04:02:09.249Z,26.90
2019-02-14T04:03:09.260Z,26.60
2019-02-14T04:05:02.858Z,27.50
2019-02-14T04:06:02.340Z,26.20
2019-02-14T04:07:55.703Z,32.30
2019-02-14T04:08:55.687Z,36.50
2019-02-14T04:10:49.477Z,36.10
2019-02-14T04:11:49.270Z,37.00
2019-02-14T04:13:42.153Z,35.30
2019-02-14T04:14:42.123Z,35.00
2019-02-14T04:16:35.429Z,34.80
2019-02-14T04:17:35.277Z,35.00
2019-02-14T04:19:28.831Z,34.70
2019-02-14T04:20:28.605Z,34.90
2019-02-14T04:22:22.163Z,36.80
2019-02-14T04:23:22.208Z,35.60
2019-02-14T04:25:14.859Z,31.90
2019-02-14T04:26:14.863Z,30.90
2019-02-14T04:28:08.401Z,31.20
2019-02-14T04:29:08.170Z,31.30
2019-02-14T04:31:01.747Z,33.30
2019-02-14T04:32:01.771Z,31.90
2019-02-14T04:35:27.425Z,31.20
2019-02-14T04:36:35.427Z,32.00
2019-02-14T04:38:20.494Z,32.90
2019-02-14T04:41:14.933Z,29.40
2019-02-14T04:42:15.145Z,31.50
2019-02-14T04:45:08.056Z,30.00
2019-02-14T04:47:03.546Z,30.70
2019-02-14T04:48:02.490Z,29.80
2019-02-14T04:50:03.687Z,30.00
2019-02-14T04:50:55.962Z,31.00
2019-02-14T04:52:49.576Z,29.00
2019-02-14T04:53:49.484Z,31.90
2019-02-14T04:55:42.838Z,30.90
2019-02-14T04:56:42.613Z,29.70
2019-02-14T04:58:36.218Z,26.60
2019-02-14T04:59:36.005Z,28.90
2019-02-14T05:01:29.311Z,27.20
2019-02-14T05:02:29.333Z,29.60
2019-02-14T05:04:23.135Z,28.90
2019-02-14T05:05:22.988Z,28.70
2019-02-14T05:07:16.139Z,28.00
2019-02-14T05:08:16.580Z,26.30
2019-02-14T05:10:09.555Z,28.00
2019-02-14T05:11:09.369Z,27.10
2019-02-14T05:13:03.058Z,26.20
2019-02-14T05:14:02.729Z,25.20
2019-02-14T05:15:56.482Z,26.90
2019-02-14T05:16:56.083Z,24.20
2019-02-14T05:18:49.439Z,24.50
2019-02-14T05:19:49.422Z,24.00
2019-02-14T05:21:43.032Z,25.40
2019-02-14T05:22:43.019Z,24.80
2019-02-14T05:24:36.989Z,24.40
2019-02-14T05:25:36.610Z,23.80
2019-02-14T05:27:30.279Z,22.90
2019-02-14T05:28:29.647Z,23.60
2019-02-14T05:30:23.965Z,21.50
2019-02-14T05:31:22.997Z,22.60
2019-02-14T05:33:16.744Z,21.70
2019-02-14T05:34:16.336Z,22.20
2019-02-14T05:36:09.742Z,21.70
2019-02-14T05:37:09.687Z,22.80
2019-02-14T05:39:42.348Z,24.30
2019-02-14T05:40:03.023Z,23.80
2019-02-14T05:41:56.428Z,22.50
2019-02-14T05:42:56.589Z,22.60
2019-02-14T05:44:50.171Z,22.30
2019-02-14T05:45:49.995Z,21.30
2019-02-14T05:47:43.318Z,19.90
2019-02-14T05:48:43.342Z,21.00
2019-02-14T05:50:36.863Z,20.40
2019-02-14T05:51:36.607Z,20.90
2019-02-14T05:53:29.852Z,20.80
2019-02-14T05:56:23.285Z,19.60
2019-02-14T05:57:23.367Z,19.90
2019-02-14T05:59:16.459Z,20.40
2019-02-14T06:00:16.478Z,19.10
2019-02-14T06:02:10.398Z,19.00
2019-02-14T06:03:09.789Z,17.80
2019-02-14T06:05:03.403Z,19.30
2019-02-14T06:06:03.139Z,18.80
2019-02-14T06:07:57.076Z,16.70
2019-02-14T06:08:56.582Z,18.50
2019-02-14T06:10:50.193Z,17.60
2019-02-14T06:11:50.492Z,17.90
2019-02-14T06:13:45.615Z,17.90
2019-02-14T06:14:43.302Z,17.30
2019-02-14T06:16:35.083Z,15.70
2019-02-14T06:17:34.907Z,16.50
2019-02-14T06:19:27.491Z,16.20
2019-02-14T06:20:27.424Z,15.80
2019-02-14T06:23:19.541Z,16.60
2019-02-14T06:25:12.695Z,15.60
2019-02-14T06:26:12.201Z,15.40
2019-02-14T06:28:05.156Z,13.90
2019-02-14T06:29:04.958Z,14.50
2019-02-14T06:30:57.510Z,13.70
2019-02-14T06:32:57.204Z,12.30
2019-02-14T06:33:57.196Z,13.40
2019-02-14T06:34:56.933Z,14.00
2019-02-14T06:35:57.136Z,13.30
2019-02-14T06:36:56.929Z,12.50
2019-02-14T06:37:56.944Z,13.10
2019-02-14T06:38:57.136Z,13.90
2019-02-14T06:39:57.194Z,14.00
2019-02-14T06:40:57.124Z,14.00
2019-02-14T06:41:57.097Z,13.10
2019-02-14T06:42:57.085Z,12.50
2019-02-14T06:43:57.081Z,12.90
2019-02-14T06:44:56.861Z,12.40
2019-02-14T06:47:30.063Z,12.80
2019-02-14T06:48:29.814Z,11.10
2019-02-14T06:50:22.893Z,10.80
2019-02-14T06:51:23.105Z,10.70
2019-02-14T06:53:16.499Z,12.10
2019-02-14T06:54:16.487Z,11.50
2019-02-14T06:56:09.795Z,10.40
2019-02-14T06:57:09.830Z,10.40
2019-02-14T06:59:03.208Z,10.30
2019-02-14T07:00:02.929Z,11.00
2019-02-14T07:01:56.473Z,9.70
2019-02-14T07:02:56.340Z,9.70
2019-02-14T07:04:49.825Z,9.40
2019-02-14T07:05:49.844Z,9.70
2019-02-14T07:07:42.554Z,8.50
2019-02-14T07:08:42.761Z,9.50
2019-02-14T07:10:36.317Z,9.50
2019-02-14T07:11:36.109Z,9.70
2019-02-14T07:13:28.705Z,9.10
2019-02-14T07:14:28.705Z,9.40
2019-02-14T07:16:23.186Z,7.30
2019-02-14T07:17:22.036Z,8.20
2019-02-14T07:18:22.081Z,6.70
2019-02-14T07:19:22.009Z,8.70
2019-02-14T07:20:22.269Z,6.80
2019-02-14T07:21:21.999Z,8.00
2019-02-14T07:22:22.246Z,7.90
2019-02-14T07:23:22.290Z,7.60
2019-02-14T07:24:22.221Z,6.80
2019-02-14T07:25:21.989Z,8.30
2019-02-14T07:26:22.246Z,6.80
2019-02-14T07:27:22.239Z,7.30
2019-02-14T07:28:22.203Z,6.70
2019-02-14T07:29:22.186Z,8.20
2019-02-14T07:30:21.925Z,7.40
2019-02-14T07:31:22.145Z,7.60
2019-02-14T07:32:22.135Z,6.90
2019-02-14T07:33:22.173Z,7.50
2019-02-14T07:34:21.892Z,6.50
2019-02-14T07:35:21.919Z,6.70
2019-02-14T07:36:21.922Z,7.60
2019-02-14T07:37:26.769Z,6.40
2019-02-14T07:38:21.893Z,6.50
2019-02-14T07:39:21.855Z,6.40
2019-02-14T07:40:21.888Z,6.30
2019-02-14T07:41:21.874Z,6.40
2019-02-14T07:42:21.826Z,6.20
2019-02-14T07:43:21.864Z,5.70
2019-02-14T07:44:21.812Z,6.70
2019-02-14T07:45:21.806Z,6.50
2019-02-14T07:46:22.969Z,5.90
2019-02-14T07:47:22.022Z,5.50
2019-02-14T07:48:22.212Z,5.80
2019-02-14T07:49:22.037Z,6.10
2019-02-14T07:50:22.000Z,6.70
2019-02-14T07:51:21.748Z,6.70
2019-02-14T07:52:25.178Z,6.90
2019-02-14T07:53:21.763Z,6.10
2019-02-14T07:54:21.997Z,5.60
2019-02-14T07:55:21.723Z,6.80
2019-02-14T07:56:21.958Z,5.90
2019-02-14T07:57:21.937Z,6.10
2019-02-14T07:58:21.942Z,5.80
2019-02-14T07:59:21.911Z,6.40
2019-02-14T08:00:21.947Z,5.80
2019-02-14T08:01:21.902Z,6.50
2019-02-14T08:02:21.890Z,6.50
2019-02-14T08:03:21.911Z,7.00
2019-02-14T08:04:21.650Z,6.60
2019-02-14T08:05:21.911Z,6.30
2019-02-14T08:06:21.878Z,6.10
2019-02-14T08:07:21.851Z,6.40
2019-02-14T08:08:21.864Z,6.80
2019-02-14T08:09:21.634Z,6.20
2019-02-14T08:10:21.836Z,6.10
2019-02-14T08:11:21.583Z,6.30
2019-02-14T08:12:21.838Z,6.60
2019-02-14T08:13:21.584Z,6.10
2019-02-14T08:14:21.798Z,6.20
2019-02-14T08:15:21.575Z,5.90
2019-02-14T08:16:21.585Z,6.10
2019-02-14T08:17:21.577Z,5.70
2019-02-14T08:18:21.897Z,7.20
2019-02-14T08:19:21.558Z,6.10
2019-02-14T08:20:21.546Z,5.50
2019-02-14T08:21:21.776Z,6.40
2019-02-14T08:22:21.743Z,6.50
2019-02-14T08:23:21.797Z,6.20
2019-02-14T08:24:21.733Z,6.90
2019-02-14T08:25:21.478Z,6.50
2019-02-14T08:26:21.559Z,5.50
2019-02-14T08:27:22.468Z,6.10
2019-02-14T08:28:21.439Z,5.50
2019-02-14T08:29:21.685Z,6.10
2019-02-14T08:30:22.458Z,5.90
2019-02-14T08:31:21.702Z,6.40
2019-02-14T08:32:21.449Z,5.90
2019-02-14T08:33:21.403Z,6.00
2019-02-14T08:34:21.657Z,6.40
2019-02-14T08:35:21.392Z,6.00
2019-02-14T08:36:21.603Z,5.80
2019-02-14T08:37:21.409Z,6.00
2019-02-14T08:38:22.203Z,6.10
2019-02-14T08:39:21.599Z,5.70
2019-02-14T08:40:21.356Z,5.80
2019-02-14T08:41:21.345Z,5.50
2019-02-14T08:42:21.324Z,4.40
2019-02-14T08:43:21.602Z,5.10
2019-02-14T08:44:21.557Z,5.80
2019-02-14T08:45:21.588Z,5.90
2019-02-14T08:46:21.551Z,5.90
2019-02-14T08:47:22.436Z,5.40
2019-02-14T08:48:21.515Z,6.00
2019-02-14T08:49:21.314Z,5.50
2019-02-14T08:50:22.229Z,6.20
2019-02-14T08:51:21.541Z,5.20
2019-02-14T08:52:21.544Z,6.50
2019-02-14T08:53:22.436Z,6.00
2019-02-14T08:54:22.438Z,6.10
2019-02-14T08:55:22.436Z,5.80
2019-02-14T08:56:21.503Z,4.90
2019-02-14T08:57:21.472Z,6.30
2019-02-14T08:58:21.479Z,5.30
2019-02-14T08:59:21.237Z,5.70
2019-02-14T09:00:21.410Z,6.00
2019-02-14T09:01:21.443Z,5.50
2019-02-14T09:02:21.391Z,5.60
2019-02-14T09:03:21.414Z,6.00
2019-02-14T09:04:21.438Z,6.00
2019-02-14T09:05:21.422Z,5.50
2019-02-14T09:06:21.179Z,5.70
2019-02-14T09:07:21.499Z,5.90
2019-02-14T09:08:21.165Z,5.10
2019-02-14T09:09:21.374Z,5.40
2019-02-14T09:10:21.330Z,5.60
2019-02-14T09:11:21.379Z,5.30
2019-02-14T09:12:21.343Z,6.20
2019-02-14T09:13:21.130Z,5.50
2019-02-14T09:14:21.116Z,5.70
2019-02-14T09:15:21.342Z,6.70
2019-02-14T09:16:21.117Z,5.70
2019-02-14T09:17:21.292Z,5.90
2019-02-14T09:18:21.273Z,5.50
2019-02-14T09:19:21.037Z,5.00
2019-02-14T09:20:21.039Z,5.90
2019-02-14T09:21:21.242Z,5.40
2019-02-14T09:22:21.272Z,5.20
2019-02-14T09:23:21.016Z,5.20
2019-02-14T09:24:21.754Z,5.40
2019-02-14T09:25:21.278Z,5.50
2019-02-14T09:26:21.253Z,5.50
2019-02-14T09:27:21.254Z,5.40
2019-02-14T09:28:21.010Z,4.90
2019-02-14T09:29:21.209Z,4.70
2019-02-14T09:30:21.264Z,5.20
2019-02-14T09:31:21.174Z,5.70
2019-02-14T09:32:20.933Z,5.00
2019-02-14T09:33:21.245Z,4.40
2019-02-14T09:34:21.161Z,5.00
2019-02-14T09:35:21.169Z,5.70
2019-02-14T09:36:21.154Z,6.20
2019-02-14T09:37:20.929Z,5.00
2019-02-14T09:38:20.936Z,4.90
2019-02-14T09:39:20.915Z,4.90
2019-02-14T09:40:21.120Z,5.60
2019-02-14T09:41:21.141Z,5.90
2019-02-14T09:42:21.719Z,5.80
2019-02-14T09:43:29.420Z,5.60
2019-02-14T09:44:20.891Z,6.00
2019-02-14T09:45:21.080Z,5.90
2019-02-14T09:46:21.088Z,6.00
2019-02-14T09:47:21.039Z,5.00
2019-02-14T09:48:21.036Z,5.50
2019-02-14T09:49:21.031Z,4.90
2019-02-14T09:50:21.013Z,5.90
2019-02-14T09:51:21.058Z,5.10
2019-02-14T09:52:20.793Z,5.20
2019-02-14T09:53:20.797Z,5.20
2019-02-14T09:54:20.754Z,5.30
2019-02-14T09:55:21.006Z,5.80
2019-02-14T09:56:20.774Z,5.00
2019-02-14T09:57:20.728Z,4.80
2019-02-14T09:58:22.589Z,5.60
2019-02-14T09:59:20.991Z,5.80
2019-02-14T10:00:21.022Z,5.30
2019-02-14T10:01:20.985Z,5.70
2019-02-14T10:02:21.001Z,5.00
2019-02-14T10:03:20.912Z,5.30
2019-02-14T10:04:20.695Z,5.70
2019-02-14T10:05:20.962Z,4.90
2019-02-14T10:06:20.921Z,5.50
2019-02-14T10:07:20.651Z,5.80
2019-02-14T10:08:20.670Z,4.50
2019-02-14T10:09:20.908Z,5.20
2019-02-14T10:10:20.878Z,5.90
2019-02-14T10:11:20.674Z,6.00
2019-02-14T10:12:20.652Z,5.60
2019-02-14T10:13:20.612Z,4.70
2019-02-14T10:14:20.603Z,5.10
2019-02-14T10:15:20.824Z,5.70
2019-02-14T10:16:20.823Z,5.00
2019-02-14T10:17:22.281Z,6.00
2019-02-14T10:18:20.796Z,5.30
2019-02-14T10:19:20.831Z,5.30
2019-02-14T10:20:20.844Z,5.30
2019-02-14T10:21:20.799Z,6.20
2019-02-14T10:22:20.799Z,5.70
2019-02-14T10:23:20.810Z,5.50
2019-02-14T10:24:20.795Z,5.40
2019-02-14T10:25:20.524Z,5.10
2019-02-14T10:26:20.507Z,5.40
2019-02-14T10:27:20.783Z,5.70
2019-02-14T10:28:20.527Z,5.30
2019-02-14T10:29:20.523Z,5.10
2019-02-14T10:30:20.718Z,4.90
2019-02-14T10:31:20.706Z,5.30
2019-02-14T10:32:20.733Z,5.50
2019-02-14T10:33:20.692Z,5.60
2019-02-14T10:34:20.448Z,5.60
2019-02-14T10:35:20.694Z,5.80
2019-02-14T10:36:20.475Z,6.00
2019-02-14T10:37:20.418Z,5.20
2019-02-14T10:38:22.598Z,5.30
2019-02-14T10:39:20.673Z,6.60
2019-02-14T10:40:20.668Z,5.80
2019-02-14T10:41:20.426Z,5.40
2019-02-14T10:42:20.424Z,4.50
2019-02-14T10:43:20.380Z,4.70
2019-02-14T10:44:20.402Z,5.10
2019-02-14T10:45:20.620Z,5.40
2019-02-14T10:46:20.607Z,5.40
2019-02-14T10:47:20.388Z,5.60
2019-02-14T10:48:20.368Z,6.90
2019-02-14T10:49:20.616Z,5.70
2019-02-14T10:50:20.566Z,5.60
2019-02-14T10:51:20.536Z,5.50
2019-02-14T10:52:20.312Z,5.20
2019-02-14T10:53:20.550Z,6.00
2019-02-14T10:54:20.301Z,5.80
2019-02-14T10:55:20.556Z,5.60
2019-02-14T10:56:20.555Z,5.90
2019-02-14T10:57:20.555Z,6.20
2019-02-14T10:58:20.539Z,6.30
2019-02-14T10:59:20.244Z,6.20
2019-02-14T11:00:20.507Z,5.80
2019-02-14T11:01:20.450Z,5.40
2019-02-14T11:02:20.514Z,5.50
2019-02-14T11:03:20.244Z,5.70
2019-02-14T11:04:20.240Z,5.50
2019-02-14T11:05:20.452Z,6.10
2019-02-14T11:06:20.441Z,6.00
2019-02-14T11:07:20.457Z,5.30
2019-02-14T11:08:20.225Z,6.00
2019-02-14T11:09:20.398Z,5.70
2019-02-14T11:10:20.164Z,5.90
2019-02-14T11:11:20.382Z,6.10
2019-02-14T11:12:21.817Z,5.40
2019-02-14T11:13:20.138Z,6.10
2019-02-14T11:14:28.698Z,5.60
2019-02-14T11:15:20.174Z,6.30
2019-02-14T11:16:20.402Z,5.80
2019-02-14T11:17:20.152Z,5.80
2019-02-14T11:18:20.137Z,6.20
2019-02-14T11:19:20.118Z,5.20
2019-02-14T11:20:20.342Z,6.10
2019-02-14T11:21:20.295Z,5.50
2019-02-14T11:22:20.344Z,6.20
2019-02-14T11:23:20.298Z,6.30
2019-02-14T11:24:20.279Z,6.00
2019-02-14T11:25:20.082Z,5.70
2019-02-14T11:26:20.269Z,6.20
2019-02-14T11:27:20.066Z,5.60
2019-02-14T11:28:20.061Z,5.80
2019-02-14T11:29:20.040Z,6.00
2019-02-14T11:30:20.292Z,5.50
2019-02-14T11:31:20.215Z,5.10
2019-02-14T11:32:20.024Z,5.70
2019-02-14T11:33:20.225Z,5.10
2019-02-14T11:34:20.016Z,5.50
2019-02-14T11:35:20.238Z,6.30
2019-02-14T11:36:20.238Z,6.00
2019-02-14T11:37:19.967Z,6.30
2019-02-14T11:38:19.990Z,5.80
2019-02-14T11:39:19.954Z,5.60
2019-02-14T11:40:20.225Z,6.00
2019-02-14T11:41:19.962Z,5.60
2019-02-14T11:42:21.787Z,5.40
2019-02-14T11:43:20.130Z,6.40
2019-02-14T11:44:19.941Z,6.30
2019-02-14T11:45:19.924Z,6.10
2019-02-14T11:46:20.135Z,6.20
2019-02-14T11:47:20.150Z,5.90
2019-02-14T11:48:19.870Z,5.70
2019-02-14T11:49:19.907Z,5.30
2019-02-14T11:50:19.886Z,4.90
2019-02-14T11:51:20.095Z,6.20
2019-02-14T11:52:19.875Z,5.70
2019-02-14T11:53:19.874Z,5.70
2019-02-14T11:54:20.081Z,6.30
2019-02-14T11:55:19.903Z,6.10
2019-02-14T11:56:20.026Z,5.50
2019-02-14T11:57:20.046Z,6.00
2019-02-14T11:58:19.799Z,6.70
2019-02-14T11:59:20.026Z,6.00
2019-02-14T12:00:20.031Z,5.90
2019-02-14T12:01:20.066Z,6.00
2019-02-14T12:02:19.985Z,5.10
2019-02-14T12:03:20.010Z,6.20
2019-02-14T12:04:19.751Z,5.90
2019-02-14T12:05:19.781Z,5.30
2019-02-14T12:06:19.743Z,6.60
2019-02-14T12:07:19.986Z,5.40
2019-02-14T12:08:19.996Z,5.90
2019-02-14T12:09:19.970Z,5.70
2019-02-14T12:10:19.957Z,6.20
2019-02-14T12:11:19.741Z,6.70
2019-02-14T12:12:20.826Z,6.30
2019-02-14T12:13:19.674Z,5.90
2019-02-14T12:14:19.894Z,6.20
2019-02-14T12:15:19.942Z,5.90
2019-02-14T12:16:19.878Z,6.20
2019-02-14T12:17:19.866Z,6.60
2019-02-14T12:18:19.865Z,5.80
2019-02-14T12:19:19.643Z,6.80
2019-02-14T12:20:19.650Z,5.90
2019-02-14T12:21:19.607Z,5.40
2019-02-14T12:22:19.633Z,5.80
2019-02-14T12:23:19.613Z,6.00
2019-02-14T12:24:19.874Z,6.10
2019-02-14T12:25:19.801Z,5.60
2019-02-14T12:26:19.609Z,6.40
2019-02-14T12:27:19.817Z,6.10
2019-02-14T12:28:19.808Z,5.70
2019-02-14T12:29:19.567Z,6.30
2019-02-14T12:30:19.800Z,5.80
2019-02-14T12:31:19.539Z,5.90
2019-02-14T12:32:19.572Z,5.90
2019-02-14T12:33:19.534Z,6.50
2019-02-14T12:34:19.521Z,6.60
2019-02-14T12:35:19.552Z,6.10
2019-02-14T12:36:19.729Z,5.90
2019-02-14T12:37:19.523Z,5.50
2019-02-14T12:38:19.751Z,5.10
2019-02-14T12:39:19.760Z,6.10
2019-02-14T12:40:19.507Z,6.10
2019-02-14T12:41:19.708Z,5.70
2019-02-14T12:42:19.466Z,5.50
2019-02-14T12:43:19.489Z,5.80
2019-02-14T12:44:19.441Z,5.90
2019-02-14T12:45:21.592Z,5.60
2019-02-14T12:46:19.452Z,6.50
2019-02-14T12:47:19.679Z,5.60
2019-02-14T12:48:19.655Z,6.10
2019-02-14T12:49:19.618Z,6.00
2019-02-14T12:50:19.424Z,5.40
2019-02-14T12:51:19.431Z,6.30
2019-02-14T12:52:19.626Z,6.40
2019-02-14T12:53:19.403Z,6.60
2019-02-14T12:54:19.635Z,6.60
2019-02-14T12:55:19.608Z,6.30
2019-02-14T12:56:19.565Z,5.90
2019-02-14T12:57:19.371Z,5.70
2019-02-14T12:58:19.579Z,6.30
2019-02-14T12:59:19.317Z,6.10
2019-02-14T13:00:19.541Z,6.00
2019-02-14T13:01:19.522Z,5.60
2019-02-14T13:02:19.339Z,5.30
2019-02-14T13:03:19.559Z,5.90
2019-02-14T13:04:19.284Z,5.90
2019-02-14T13:05:19.321Z,6.20
2019-02-14T13:06:19.301Z,5.90
2019-02-14T13:07:20.427Z,6.10
2019-02-14T13:08:19.293Z,6.40
2019-02-14T13:09:20.125Z,6.00
2019-02-14T13:10:19.276Z,6.20
2019-02-14T13:11:19.508Z,6.00
2019-02-14T13:12:19.219Z,6.40
2019-02-14T13:13:19.222Z,6.30
2019-02-14T13:14:19.464Z,5.90
2019-02-14T13:15:19.453Z,7.10
2019-02-14T13:16:19.228Z,6.50
2019-02-14T13:17:19.178Z,6.70
2019-02-14T13:18:19.167Z,6.10
2019-02-14T13:19:19.405Z,6.30
2019-02-14T13:20:19.395Z,7.50
2019-02-14T13:21:19.393Z,6.50
2019-02-14T13:22:19.367Z,5.70
2019-02-14T13:23:19.142Z,5.30
2019-02-14T13:24:19.379Z,6.00
2019-02-14T13:25:19.118Z,6.80
2019-02-14T13:26:19.402Z,5.60
2019-02-14T13:27:19.341Z,6.20
2019-02-14T13:28:19.100Z,5.80
2019-02-14T13:29:19.094Z,5.70
2019-02-14T13:30:19.331Z,6.00
2019-02-14T13:31:19.082Z,5.90
2019-02-14T13:32:19.103Z,5.40
2019-02-14T13:33:19.353Z,6.10
2019-02-14T13:34:19.052Z,5.80
2019-02-14T13:35:19.284Z,5.60
2019-02-14T13:36:19.067Z,6.10
2019-02-14T13:37:19.283Z,6.60
2019-02-14T13:38:19.065Z,5.60
2019-02-14T13:39:19.019Z,6.10
2019-02-14T13:40:19.257Z,5.50
2019-02-14T13:41:19.051Z,6.10
2019-02-14T13:42:19.242Z,6.80
2019-02-14T13:43:19.024Z,6.00
2019-02-14T13:44:19.192Z,6.30
2019-02-14T13:45:18.996Z,5.50
2019-02-14T13:46:18.958Z,6.00
2019-02-14T13:47:18.954Z,6.20
2019-02-14T13:48:18.942Z,5.30
2019-02-14T13:49:18.941Z,5.80
2019-02-14T13:50:18.965Z,5.60
2019-02-14T13:51:18.919Z,5.60
2019-02-14T13:52:19.128Z,5.40
2019-02-14T13:53:18.950Z,6.10
2019-02-14T13:54:19.188Z,5.70
2019-02-14T13:55:18.891Z,5.50
2019-02-14T13:56:19.144Z,5.40
2019-02-14T13:57:19.154Z,5.30
2019-02-14T13:58:18.871Z,5.50
2019-02-14T13:59:18.854Z,6.20
2019-02-14T14:00:18.845Z,5.40
2019-02-14T14:01:19.067Z,5.10
2019-02-14T14:02:19.061Z,5.40
2019-02-14T14:03:18.832Z,5.20
2019-02-14T14:04:19.034Z,5.70
2019-02-14T14:05:19.068Z,5.00
2019-02-14T14:06:19.079Z,5.50
2019-02-14T14:07:19.050Z,5.80
2019-02-14T14:08:18.998Z,5.50
2019-02-14T14:09:18.817Z,6.00
2019-02-14T14:10:18.776Z,5.30
2019-02-14T14:11:18.996Z,5.80
2019-02-14T14:12:18.807Z,6.30
2019-02-14T14:13:19.004Z,5.70
2019-02-14T14:14:18.965Z,5.80
2019-02-14T14:15:19.010Z,5.70
2019-02-14T14:16:18.942Z,5.10
2019-02-14T14:17:18.992Z,6.00
2019-02-14T14:18:18.749Z,6.60
2019-02-14T14:19:18.989Z,6.20
2019-02-14T14:20:18.741Z,5.80
2019-02-14T14:21:18.729Z,6.10
2019-02-14T14:22:18.962Z,6.20
2019-02-14T14:23:19.911Z,5.50
2019-02-14T14:24:18.698Z,7.00
2019-02-14T14:25:18.920Z,5.80
2019-02-14T14:26:18.898Z,5.70
2019-02-14T14:27:18.646Z,5.80
2019-02-14T14:28:18.629Z,5.60
2019-02-14T14:29:18.650Z,5.60
2019-02-14T14:30:18.626Z,5.50
2019-02-14T14:31:18.610Z,6.00
2019-02-14T14:32:18.843Z,5.90
2019-02-14T14:33:18.592Z,5.70
2019-02-14T14:34:18.825Z,5.70
2019-02-14T14:35:18.850Z,5.50
2019-02-14T14:36:18.568Z,6.00
2019-02-14T14:37:18.562Z,6.30
2019-02-14T14:38:18.825Z,7.00
2019-02-14T14:39:18.827Z,6.70
2019-02-14T14:40:20.346Z,6.60
2019-02-14T14:41:18.749Z,6.80
2019-02-14T14:42:18.803Z,6.20
2019-02-14T14:43:18.581Z,6.40
2019-02-14T14:44:18.777Z,6.30
2019-02-14T14:45:18.506Z,7.10
2019-02-14T14:46:18.535Z,7.00
2019-02-14T14:47:18.705Z,6.00
2019-02-14T14:48:19.840Z,6.70
2019-02-14T14:49:18.694Z,6.50
2019-02-14T14:50:18.720Z,6.80
2019-02-14T14:51:18.697Z,6.40
2019-02-14T14:52:18.666Z,7.00
2019-02-14T14:53:18.714Z,6.80
2019-02-14T14:54:18.470Z,6.50
2019-02-14T14:55:18.452Z,7.20
2019-02-14T14:56:18.629Z,7.00
2019-02-14T14:57:18.692Z,6.60
2019-02-14T14:58:18.402Z,6.20
2019-02-14T14:59:18.640Z,6.90
2019-02-14T15:00:18.603Z,7.20
2019-02-14T15:01:18.375Z,7.50
2019-02-14T15:02:18.628Z,6.60
2019-02-14T15:03:18.358Z,6.60
2019-02-14T15:04:18.571Z,7.00
2019-02-14T15:05:18.349Z,7.10
2019-02-14T15:06:18.377Z,7.00
2019-02-14T15:07:18.579Z,6.50
2019-02-14T15:08:18.353Z,6.90
2019-02-14T15:09:18.528Z,6.50
2019-02-14T15:10:18.340Z,7.80
2019-02-14T15:11:18.547Z,7.10
2019-02-14T15:12:18.553Z,7.40
2019-02-14T15:13:18.320Z,7.30
2019-02-14T15:14:18.265Z,7.30
2019-02-14T15:15:18.299Z,7.30
2019-02-14T15:16:18.262Z,7.40
2019-02-14T15:17:18.497Z,8.20
2019-02-14T15:18:18.494Z,7.50
2019-02-14T15:19:18.517Z,8.80
2019-02-14T15:20:18.468Z,7.80
2019-02-14T15:21:18.223Z,7.60
2019-02-14T15:22:18.461Z,7.90
2019-02-14T15:23:18.478Z,7.50
2019-02-14T15:24:18.466Z,8.10
2019-02-14T15:25:18.408Z,7.40
2019-02-14T15:26:18.176Z,8.70
2019-02-14T15:27:18.455Z,8.40
2019-02-14T15:28:18.415Z,8.60
2019-02-14T15:29:18.153Z,8.90
2019-02-14T15:30:18.428Z,9.20
2019-02-14T15:31:18.184Z,9.00